sensor_id;sensor_type;location;lat;lon;timestamp;pressure;altitude;pressure_sealevel;temperature;humidity
27304;BME280;14791;52.392;13.092;2023-04-01T00:01:19;99258.89;;;16.06;57.71
27304;BME280;14791;52.392;13.092;2023-04-01T00:03:48;99259.08;;;16.05;57.73
27304;BME280;14791;52.392;13.092;2023-04-01T00:06:18;99256.89;;;16.04;57.70
27304;BME280;14791;52.392;13.092;2023-04-01T00:08:47;99257.05;;;16.03;57.72
27304;BME280;14791;52.392;13.092;2023-04-01T00:11:17;99255.34;;;16.02;57.79
27304;BME280;14791;52.392;13.092;2023-04-01T00:13:46;99253.16;;;16.01;57.73
27304;BME280;14791;52.392;13.092;2023-04-01T00:16:16;99258.40;;;16.03;57.71
27304;BME280;14791;52.392;13.092;2023-04-01T00:18:44;99248.29;;;16.01;57.70
27304;BME280;14791;52.392;13.092;2023-04-01T00:21:15;99254.19;;;16.00;57.74
27304;BME280;14791;52.392;13.092;2023-04-01T00:23:44;99259.06;;;16.01;57.80
27304;BME280;14791;52.392;13.092;2023-04-01T00:26:13;99257.05;;;16.03;57.93
27304;BME280;14791;52.392;13.092;2023-04-01T00:28:44;99261.77;;;16.05;57.92
27304;BME280;14791;52.392;13.092;2023-04-01T00:31:14;99256.55;;;16.07;57.91
27304;BME280;14791;52.392;13.092;2023-04-01T00:33:43;99259.74;;;16.11;57.86
27304;BME280;14791;52.392;13.092;2023-04-01T00:36:16;99253.18;;;16.13;57.80
27304;BME280;14791;52.392;13.092;2023-04-01T00:38:45;99257.74;;;16.17;57.66
27304;BME280;14791;52.392;13.092;2023-04-01T00:41:16;99259.09;;;16.17;57.64
27304;BME280;14791;52.392;13.092;2023-04-01T00:43:47;99257.08;;;16.19;57.59
27304;BME280;14791;52.392;13.092;2023-04-01T00:46:17;99259.77;;;16.19;57.46
27304;BME280;14791;52.392;13.092;2023-04-01T00:48:52;99263.45;;;16.18;57.42
27304;BME280;14791;52.392;13.092;2023-04-01T00:51:29;99259.09;;;16.17;57.40
27304;BME280;14791;52.392;13.092;2023-04-01T00:53:55;99260.95;;;16.16;57.45
27304;BME280;14791;52.392;13.092;2023-04-01T00:56:27;99258.09;;;16.14;57.38
27304;BME280;14791;52.392;13.092;2023-04-01T00:59:04;99258.75;;;16.12;57.40
27304;BME280;14791;52.392;13.092;2023-04-01T01:01:36;99264.30;;;16.10;57.43
27304;BME280;14791;52.392;13.092;2023-04-01T01:04:05;99257.55;;;16.06;57.45
27304;BME280;14791;52.392;13.092;2023-04-01T01:06:43;99263.12;;;16.05;57.44
27304;BME280;14791;52.392;13.092;2023-04-01T01:12:22;99261.43;;;16.00;57.46
27304;BME280;14791;52.392;13.092;2023-04-01T01:26:09;99262.88;;;15.73;57.90
27304;BME280;14791;52.392;13.092;2023-04-01T01:34:36;99267.19;;;15.66;58.03
27304;BME280;14791;52.392;13.092;2023-04-01T01:37:09;99266.48;;;15.60;58.07
27304;BME280;14791;52.392;13.092;2023-04-01T01:39:40;99273.72;;;15.60;58.06
27304;BME280;14791;52.392;13.092;2023-04-01T01:42:13;99270.70;;;15.59;58.02
27304;BME280;14791;52.392;13.092;2023-04-01T01:44:44;99273.39;;;15.59;57.99
27304;BME280;14791;52.392;13.092;2023-04-01T01:47:15;99268.02;;;15.59;57.99
27304;BME280;14791;52.392;13.092;2023-04-01T01:49:46;99268.67;;;15.57;57.99
27304;BME280;14791;52.392;13.092;2023-04-01T01:52:17;99273.69;;;15.56;57.97
27304;BME280;14791;52.392;13.092;2023-04-01T01:54:54;99261.26;;;15.55;58.05
27304;BME280;14791;52.392;13.092;2023-04-01T01:57:28;99267.98;;;15.55;58.08
27304;BME280;14791;52.392;13.092;2023-04-01T02:00:07;99271.34;;;15.52;58.11
27304;BME280;14791;52.392;13.092;2023-04-01T02:02:41;99270.32;;;15.49;58.05
27304;BME280;14791;52.392;13.092;2023-04-01T02:05:17;99274.33;;;15.45;58.14
27304;BME280;14791;52.392;13.092;2023-04-01T02:10:37;99271.31;;;15.44;58.32
27304;BME280;14791;52.392;13.092;2023-04-01T02:13:18;99272.63;;;15.40;58.40
27304;BME280;14791;52.392;13.092;2023-04-01T02:15:49;99275.32;;;15.40;58.37
27304;BME280;14791;52.392;13.092;2023-04-01T02:18:19;99275.30;;;15.36;58.43
27304;BME280;14791;52.392;13.092;2023-04-01T02:20:49;99276.31;;;15.35;58.42
27304;BME280;14791;52.392;13.092;2023-04-01T02:23:19;99275.80;;;15.36;58.38
27304;BME280;14791;52.392;13.092;2023-04-01T02:25:50;99273.95;;;15.36;58.38
27304;BME280;14791;52.392;13.092;2023-04-01T02:28:20;99276.31;;;15.35;58.37
27304;BME280;14791;52.392;13.092;2023-04-01T02:30:51;99277.30;;;15.34;58.38
27304;BME280;14791;52.392;13.092;2023-04-01T02:33:21;99276.61;;;15.32;58.36
27304;BME280;14791;52.392;13.092;2023-04-01T02:35:51;99274.43;;;15.31;58.38
27304;BME280;14791;52.392;13.092;2023-04-01T02:38:20;99281.81;;;15.29;58.46
27304;BME280;14791;52.392;13.092;2023-04-01T02:41:02;99286.36;;;15.29;58.48
27304;BME280;14791;52.392;13.092;2023-04-01T02:43:27;99280.14;;;15.28;58.53
27304;BME280;14791;52.392;13.092;2023-04-01T02:45:57;99290.06;;;15.28;58.58
27304;BME280;14791;52.392;13.092;2023-04-01T02:48:26;99284.32;;;15.27;58.52
27304;BME280;14791;52.392;13.092;2023-04-01T02:50:55;99295.59;;;15.26;58.53
27304;BME280;14791;52.392;13.092;2023-04-01T02:53:24;99292.39;;;15.27;58.55
27304;BME280;14791;52.392;13.092;2023-04-01T02:55:53;99293.91;;;15.25;58.54
27304;BME280;14791;52.392;13.092;2023-04-01T02:58:22;99298.42;;;15.25;58.52
27304;BME280;14791;52.392;13.092;2023-04-01T03:00:51;99302.13;;;15.24;58.60
27304;BME280;14791;52.392;13.092;2023-04-01T03:03:20;99294.21;;;15.22;58.64
27304;BME280;14791;52.392;13.092;2023-04-01T03:05:49;99305.84;;;15.23;58.70
27304;BME280;14791;52.392;13.092;2023-04-01T03:08:19;99300.09;;;15.22;58.68
27304;BME280;14791;52.392;13.092;2023-04-01T03:10:48;99302.09;;;15.20;58.67
27304;BME280;14791;52.392;13.092;2023-04-01T03:13:17;99304.09;;;15.18;58.71
27304;BME280;14791;52.392;13.092;2023-04-01T03:15:47;99304.79;;;15.16;58.73
27304;BME280;14791;52.392;13.092;2023-04-01T03:18:16;99305.77;;;15.15;58.76
27304;BME280;14791;52.392;13.092;2023-04-01T03:20:46;99303.41;;;15.12;58.80
27304;BME280;14791;52.392;13.092;2023-04-01T03:23:15;99300.36;;;15.10;58.83
27304;BME280;14791;52.392;13.092;2023-04-01T03:25:46;99307.08;;;15.10;58.89
27304;BME280;14791;52.392;13.092;2023-04-01T03:28:16;99304.90;;;15.10;58.91
27304;BME280;14791;52.392;13.092;2023-04-01T03:30:45;99312.81;;;15.12;58.89
27304;BME280;14791;52.392;13.092;2023-04-01T03:33:14;99307.95;;;15.11;58.82
27304;BME280;14791;52.392;13.092;2023-04-01T03:35:42;99306.61;;;15.11;58.87
27304;BME280;14791;52.392;13.092;2023-04-01T03:38:11;99310.78;;;15.09;58.88
27304;BME280;14791;52.392;13.092;2023-04-01T03:40:43;99318.53;;;15.13;58.89
27304;BME280;14791;52.392;13.092;2023-04-01T03:43:12;99319.36;;;15.13;58.89
27304;BME280;14791;52.392;13.092;2023-04-01T03:45:48;99315.18;;;15.15;58.88
27304;BME280;14791;52.392;13.092;2023-04-01T03:48:18;99320.92;;;15.16;58.86
27304;BME280;14791;52.392;13.092;2023-04-01T03:50:48;99314.67;;;15.15;58.90
27304;BME280;14791;52.392;13.092;2023-04-01T03:56:08;99330.84;;;15.19;58.89
27304;BME280;14791;52.392;13.092;2023-04-01T03:58:37;99328.30;;;15.18;58.90
27304;BME280;14791;52.392;13.092;2023-04-01T04:01:19;99324.27;;;15.18;58.79
27304;BME280;14791;52.392;13.092;2023-04-01T04:03:53;99330.52;;;15.18;58.83
27304;BME280;14791;52.392;13.092;2023-04-01T04:06:23;99330.34;;;15.16;59.04
27304;BME280;14791;52.392;13.092;2023-04-01T04:08:53;99332.01;;;15.17;59.11
27304;BME280;14791;52.392;13.092;2023-04-01T04:11:23;99339.60;;;15.21;59.14
27304;BME280;14791;52.392;13.092;2023-04-01T04:13:52;99335.42;;;15.23;59.12
27304;BME280;14791;52.392;13.092;2023-04-01T04:16:22;99340.47;;;15.26;59.07
27304;BME280;14791;52.392;13.092;2023-04-01T04:18:53;99342.84;;;15.29;58.98
27304;BME280;14791;52.392;13.092;2023-04-01T04:21:22;99339.16;;;15.30;59.07
27304;BME280;14791;52.392;13.092;2023-04-01T04:23:51;99342.36;;;15.34;59.08
27304;BME280;14791;52.392;13.092;2023-04-01T04:26:20;99347.42;;;15.37;58.97
27304;BME280;14791;52.392;13.092;2023-04-01T04:28:57;99347.27;;;15.38;58.95
27304;BME280;14791;52.392;13.092;2023-04-01T04:31:26;99342.91;;;15.37;58.98
27304;BME280;14791;52.392;13.092;2023-04-01T04:33:59;99349.81;;;15.40;58.89
27304;BME280;14791;52.392;13.092;2023-04-01T04:36:30;99350.98;;;15.41;58.86
27304;BME280;14791;52.392;13.092;2023-04-01T04:38:59;99353.02;;;15.43;58.85
27304;BME280;14791;52.392;13.092;2023-04-01T04:41:30;99356.06;;;15.44;58.88
27304;BME280;14791;52.392;13.092;2023-04-01T04:43:59;99354.03;;;15.46;58.87
27304;BME280;14791;52.392;13.092;2023-04-01T04:46:28;99354.90;;;15.47;58.81
27304;BME280;14791;52.392;13.092;2023-04-01T04:48:59;99355.91;;;15.50;58.71
27304;BME280;14791;52.392;13.092;2023-04-01T04:51:28;99359.44;;;15.50;58.65
27304;BME280;14791;52.392;13.092;2023-04-01T04:53:57;99358.45;;;15.51;58.67
27304;BME280;14791;52.392;13.092;2023-04-01T04:56:28;99361.48;;;15.52;58.63
27304;BME280;14791;52.392;13.092;2023-04-01T04:59:00;99359.30;;;15.52;58.70
27304;BME280;14791;52.392;13.092;2023-04-01T05:01:30;99365.84;;;15.53;58.78
27304;BME280;14791;52.392;13.092;2023-04-01T05:04:01;99369.58;;;15.57;58.78
27304;BME280;14791;52.392;13.092;2023-04-01T05:06:30;99356.45;;;15.58;58.75
27304;BME280;14791;52.392;13.092;2023-04-01T05:08:59;99365.06;;;15.61;58.78
27304;BME280;14791;52.392;13.092;2023-04-01T05:11:28;99369.61;;;15.65;58.72
27304;BME280;14791;52.392;13.092;2023-04-01T05:13:57;99373.50;;;15.66;58.70
27304;BME280;14791;52.392;13.092;2023-04-01T05:16:27;99378.55;;;15.69;58.73
27304;BME280;14791;52.392;13.092;2023-04-01T05:18:56;99378.77;;;15.72;58.79
27304;BME280;14791;52.392;13.092;2023-04-01T05:21:25;99377.27;;;15.78;58.91
27304;BME280;14791;52.392;13.092;2023-04-01T05:23:55;99377.66;;;15.83;58.92
27304;BME280;14791;52.392;13.092;2023-04-01T05:26:25;99375.64;;;15.89;58.97
27304;BME280;14791;52.392;13.092;2023-04-01T05:28:54;99375.16;;;15.93;59.07
27304;BME280;14791;52.392;13.092;2023-04-01T05:31:22;99380.23;;;16.01;59.06
27304;BME280;14791;52.392;13.092;2023-04-01T05:33:52;99386.00;;;16.10;59.03
27304;BME280;14791;52.392;13.092;2023-04-01T05:36:22;99385.53;;;16.19;58.97
27304;BME280;14791;52.392;13.092;2023-04-01T05:38:51;99386.06;;;16.26;58.86
27304;BME280;14791;52.392;13.092;2023-04-01T05:41:21;99390.62;;;16.34;58.68
27304;BME280;14791;52.392;13.092;2023-04-01T05:43:51;99387.28;;;16.40;58.64
27304;BME280;14791;52.392;13.092;2023-04-01T05:46:21;99394.17;;;16.47;58.51
27304;BME280;14791;52.392;13.092;2023-04-01T05:48:52;99390.98;;;16.51;58.46
27304;BME280;14791;52.392;13.092;2023-04-01T05:51:21;99389.50;;;16.57;58.24
27304;BME280;14791;52.392;13.092;2023-04-01T05:53:50;99397.57;;;16.61;57.91
27304;BME280;14791;52.392;13.092;2023-04-01T05:56:19;99401.46;;;16.63;57.80
27304;BME280;14791;52.392;13.092;2023-04-01T05:58:52;99401.30;;;16.64;57.85
27304;BME280;14791;52.392;13.092;2023-04-01T06:01:23;99399.45;;;16.65;57.86
27304;BME280;14791;52.392;13.092;2023-04-01T06:03:52;99400.28;;;16.65;57.99
27304;BME280;14791;52.392;13.092;2023-04-01T06:06:26;99403.66;;;16.67;57.99
27304;BME280;14791;52.392;13.092;2023-04-01T06:09:04;99405.02;;;16.71;58.07
27304;BME280;14791;52.392;13.092;2023-04-01T06:11:46;99410.08;;;16.74;58.00
27304;BME280;14791;52.392;13.092;2023-04-01T06:14:30;99408.77;;;16.78;58.01
27304;BME280;14791;52.392;13.092;2023-04-01T06:20:00;99415.85;;;16.84;58.04
27304;BME280;14791;52.392;13.092;2023-04-01T06:30:47;99429.17;;;16.93;58.10
27304;BME280;14791;52.392;13.092;2023-04-01T06:36:21;99428.00;;;17.00;58.10
27304;BME280;14791;52.392;13.092;2023-04-01T06:44:16;99439.30;;;17.08;57.76
27304;BME280;14791;52.392;13.092;2023-04-01T06:47:23;99435.06;;;17.09;57.64
27304;BME280;14791;52.392;13.092;2023-04-01T06:50:20;99438.63;;;17.10;57.71
27304;BME280;14791;52.392;13.092;2023-04-01T06:53:44;99437.59;;;17.07;57.69
27304;BME280;14791;52.392;13.092;2023-04-01T06:56:30;99447.22;;;17.05;57.64
27304;BME280;14791;52.392;13.092;2023-04-01T06:59:12;99449.23;;;16.99;57.78
27304;BME280;14791;52.392;13.092;2023-04-01T07:01:47;99448.05;;;17.01;57.62
27304;BME280;14791;52.392;13.092;2023-04-01T07:04:30;99445.88;;;17.05;57.65
27304;BME280;14791;52.392;13.092;2023-04-01T07:09:53;99453.63;;;17.12;57.66
27304;BME280;14791;52.392;13.092;2023-04-01T07:12:38;99450.08;;;17.16;57.52
27304;BME280;14791;52.392;13.092;2023-04-01T07:15:33;99455.98;;;17.15;57.58
27304;BME280;14791;52.392;13.092;2023-04-01T07:18:22;99451.61;;;17.14;57.64
27304;BME280;14791;52.392;13.092;2023-04-01T07:20:53;99453.61;;;17.16;57.64
27304;BME280;14791;52.392;13.092;2023-04-01T07:23:29;99453.13;;;17.17;57.53
27304;BME280;14791;52.392;13.092;2023-04-01T07:26:15;99456.67;;;17.21;57.42
27304;BME280;14791;52.392;13.092;2023-04-01T07:29:01;99455.14;;;17.23;57.49
27304;BME280;14791;52.392;13.092;2023-04-01T07:37:45;99463.06;;;17.33;57.74
27304;BME280;14791;52.392;13.092;2023-04-01T07:54:14;99475.72;;;17.49;57.49
27304;BME280;14791;52.392;13.092;2023-04-01T07:57:12;99476.72;;;17.52;57.40
27304;BME280;14791;52.392;13.092;2023-04-01T08:00:24;99474.53;;;17.55;57.36
27304;BME280;14791;52.392;13.092;2023-04-01T08:05:40;99480.10;;;17.58;57.71
27304;BME280;14791;52.392;13.092;2023-04-01T08:11:41;99487.34;;;17.70;57.00
27304;BME280;14791;52.392;13.092;2023-04-01T08:14:41;99486.31;;;17.67;56.82
27304;BME280;14791;52.392;13.092;2023-04-01T08:22:49;99492.25;;;17.58;56.68
27304;BME280;14791;52.392;13.092;2023-04-01T08:25:28;99491.74;;;17.62;56.78
27304;BME280;14791;52.392;13.092;2023-04-01T08:30:50;99498.12;;;17.74;56.77
27304;BME280;14791;52.392;13.092;2023-04-01T08:36:07;99503.05;;;17.87;56.52
27304;BME280;14791;52.392;13.092;2023-04-01T08:38:51;99498.64;;;17.94;56.45
27304;BME280;14791;52.392;13.092;2023-04-01T08:50:12;99511.56;;;18.19;55.99
27304;BME280;14791;52.392;13.092;2023-04-01T09:04:04;99517.50;;;18.58;55.80
27304;BME280;14791;52.392;13.092;2023-04-01T09:06:48;99506.65;;;18.70;55.57
27304;BME280;14791;52.392;13.092;2023-04-01T09:09:28;99511.34;;;18.84;55.44
27304;BME280;14791;52.392;13.092;2023-04-01T09:12:17;99509.03;;;19.00;55.31
27304;BME280;14791;52.392;13.092;2023-04-01T09:20:35;99517.45;;;19.32;54.70
27304;BME280;14791;52.392;13.092;2023-04-01T09:23:32;99529.19;;;19.44;54.62
27304;BME280;14791;52.392;13.092;2023-04-01T09:26:24;99531.64;;;19.53;54.39
27304;BME280;14791;52.392;13.092;2023-04-01T09:34:53;99526.61;;;19.73;53.62
27304;BME280;14791;52.392;13.092;2023-04-01T09:43:22;99540.62;;;19.77;52.80
27304;BME280;14791;52.392;13.092;2023-04-01T09:54:26;99550.50;;;19.47;52.50
27304;BME280;14791;52.392;13.092;2023-04-01T09:57:29;99549.28;;;19.26;52.39
27304;BME280;14791;52.392;13.092;2023-04-01T10:19:47;99571.41;;;17.87;55.57
27304;BME280;14791;52.392;13.092;2023-04-01T10:25:26;99578.78;;;17.64;55.69
27304;BME280;14791;52.392;13.092;2023-04-01T10:28:06;99587.23;;;17.53;55.62
27304;BME280;14791;52.392;13.092;2023-04-01T10:30:55;99588.58;;;17.41;55.72
27304;BME280;14791;52.392;13.092;2023-04-01T10:39:37;99597.63;;;17.15;56.62
27304;BME280;14791;52.392;13.092;2023-04-01T10:42:53;99603.66;;;17.09;57.00
27304;BME280;14791;52.392;13.092;2023-04-01T10:45:30;99601.28;;;17.02;57.16
27304;BME280;14791;52.392;13.092;2023-04-01T10:48:17;99606.02;;;17.00;57.20
27304;BME280;14791;52.392;13.092;2023-04-01T10:54:14;99610.73;;;16.98;57.25
27304;BME280;14791;52.392;13.092;2023-04-01T10:56:58;99619.13;;;16.95;57.31
27304;BME280;14791;52.392;13.092;2023-04-01T11:06:05;99613.73;;;16.91;57.88
27304;BME280;14791;52.392;13.092;2023-04-01T11:11:19;99620.14;;;16.94;58.17
27304;BME280;14791;52.392;13.092;2023-04-01T11:22:30;99633.70;;;17.10;58.18
27304;BME280;14791;52.392;13.092;2023-04-01T11:36:39;99638.77;;;17.17;58.04
27304;BME280;14791;52.392;13.092;2023-04-01T11:42:28;99639.97;;;17.23;57.78
27304;BME280;14791;52.392;13.092;2023-04-01T11:53:31;99647.91;;;17.25;58.01
27304;BME280;14791;52.392;13.092;2023-04-01T11:56:21;99649.76;;;17.28;58.08
27304;BME280;14791;52.392;13.092;2023-04-01T12:10:25;99670.06;;;17.49;57.60
27304;BME280;14791;52.392;13.092;2023-04-01T12:12:54;99674.61;;;17.52;57.21
27304;BME280;14791;52.392;13.092;2023-04-01T12:15:29;99682.39;;;17.51;57.26
27304;BME280;14791;52.392;13.092;2023-04-01T12:18:05;99688.28;;;17.55;57.05
27304;BME280;14791;52.392;13.092;2023-04-01T12:20:51;99688.45;;;17.57;56.77
27304;BME280;14791;52.392;13.092;2023-04-01T12:23:28;99691.16;;;17.57;56.61
27304;BME280;14791;52.392;13.092;2023-04-01T12:42:34;99704.81;;;17.43;55.50
27304;BME280;14791;52.392;13.092;2023-04-01T12:45:31;99704.27;;;17.40;55.57
27304;BME280;14791;52.392;13.092;2023-04-01T12:47:51;99710.34;;;17.38;55.65
27304;BME280;14791;52.392;13.092;2023-04-01T12:50:48;99717.78;;;17.36;55.72
27304;BME280;14791;52.392;13.092;2023-04-01T12:55:47;99727.02;;;17.29;55.38
27304;BME280;14791;52.392;13.092;2023-04-01T12:58:53;99735.27;;;17.28;55.41
27304;BME280;14791;52.392;13.092;2023-04-01T13:04:25;99739.30;;;17.19;55.73
27304;BME280;14791;52.392;13.092;2023-04-01T13:12:45;99745.92;;;16.99;55.28
27304;BME280;14791;52.392;13.092;2023-04-01T13:17:53;99759.92;;;16.76;55.30
27304;BME280;14791;52.392;13.092;2023-04-01T13:20:26;99760.35;;;16.68;55.40
27304;BME280;14791;52.392;13.092;2023-04-01T13:31:12;99768.03;;;16.36;55.80
27304;BME280;14791;52.392;13.092;2023-04-01T13:33:54;99774.72;;;16.32;55.78
27304;BME280;14791;52.392;13.092;2023-04-01T13:36:29;99774.70;;;16.28;55.79
27304;BME280;14791;52.392;13.092;2023-04-01T13:39:24;99781.71;;;16.21;55.76
27304;BME280;14791;52.392;13.092;2023-04-01T13:44:48;99786.28;;;16.07;56.10
27304;BME280;14791;52.392;13.092;2023-04-01T13:50:07;99783.44;;;15.94;55.79
27304;BME280;14791;52.392;13.092;2023-04-01T14:01:15;99797.56;;;15.65;55.89
27304;BME280;14791;52.392;13.092;2023-04-01T14:09:36;99810.27;;;15.45;56.15
27304;BME280;14791;52.392;13.092;2023-04-01T14:15:22;99813.28;;;15.32;56.42
27304;BME280;14791;52.392;13.092;2023-04-01T14:29:18;99848.38;;;15.17;56.73
27304;BME280;14791;52.392;13.092;2023-04-01T14:31:57;99855.61;;;15.16;56.85
27304;BME280;14791;52.392;13.092;2023-04-01T14:42:59;99859.88;;;15.09;56.70
27304;BME280;14791;52.392;13.092;2023-04-01T14:46:32;99866.02;;;15.05;56.60
27304;BME280;14791;52.392;13.092;2023-04-01T14:48:30;99873.17;;;15.01;56.47
27304;BME280;14791;52.392;13.092;2023-04-01T14:51:08;99874.11;;;14.96;56.54
27304;BME280;14791;52.392;13.092;2023-04-01T14:53:36;99878.94;;;14.92;56.61
27304;BME280;14791;52.392;13.092;2023-04-01T14:56:07;99881.55;;;14.88;56.49
27304;BME280;14791;52.392;13.092;2023-04-01T14:58:44;99892.94;;;14.86;56.44
27304;BME280;14791;52.392;13.092;2023-04-01T15:16:02;99910.45;;;14.51;57.04
27304;BME280;14791;52.392;13.092;2023-04-01T15:18:56;99906.43;;;14.51;57.02
27304;BME280;14791;52.392;13.092;2023-04-01T15:21:44;99910.45;;;14.51;57.00
27304;BME280;14791;52.392;13.092;2023-04-01T15:24:46;99917.81;;;14.49;56.90
27304;BME280;14791;52.392;13.092;2023-04-01T15:30:38;99918.64;;;14.40;56.71
27304;BME280;14791;52.392;13.092;2023-04-01T15:33:18;99920.27;;;14.37;56.82
27304;BME280;14791;52.392;13.092;2023-04-01T15:36:19;99925.17;;;14.32;57.04
27304;BME280;14791;52.392;13.092;2023-04-01T15:38:55;99929.70;;;14.31;57.14
27304;BME280;14791;52.392;13.092;2023-04-01T15:41:36;99930.84;;;14.29;57.16
27304;BME280;14791;52.392;13.092;2023-04-01T15:46:46;99941.08;;;14.29;57.02
27304;BME280;14791;52.392;13.092;2023-04-01T15:49:41;99943.98;;;14.32;56.97
27304;BME280;14791;52.392;13.092;2023-04-01T15:52:22;99947.67;;;14.31;57.04
27304;BME280;14791;52.392;13.092;2023-04-01T16:03:58;99968.34;;;14.24;57.12
27304;BME280;14791;52.392;13.092;2023-04-01T16:20:24;99995.86;;;14.07;56.98
27304;BME280;14791;52.392;13.092;2023-04-01T16:22:59;99994.30;;;14.04;56.96
27304;BME280;14791;52.392;13.092;2023-04-01T16:25:43;100002.84;;;14.04;56.92
27304;BME280;14791;52.392;13.092;2023-04-01T16:28:31;100002.47;;;14.03;56.77
27304;BME280;14791;52.392;13.092;2023-04-01T16:39:33;100015.85;;;13.78;56.82
27304;BME280;14791;52.392;13.092;2023-04-01T16:44:52;100020.33;;;13.68;56.71
27304;BME280;14791;52.392;13.092;2023-04-01T16:47:32;100024.24;;;13.64;56.81
27304;BME280;14791;52.392;13.092;2023-04-01T16:50:27;100034.88;;;13.59;57.03
27304;BME280;14791;52.392;13.092;2023-04-01T16:53:17;100034.64;;;13.57;56.90
27304;BME280;14791;52.392;13.092;2023-04-01T16:56:07;100041.02;;;13.50;56.82
27304;BME280;14791;52.392;13.092;2023-04-01T16:58:37;100056.80;;;13.44;56.90
27304;BME280;14791;52.392;13.092;2023-04-01T17:01:12;100052.32;;;13.38;56.99
27304;BME280;14791;52.392;13.092;2023-04-01T17:03:46;100061.94;;;13.35;57.03
27304;BME280;14791;52.392;13.092;2023-04-01T17:11:49;100082.33;;;13.32;57.24
27304;BME280;14791;52.392;13.092;2023-04-01T17:14:29;100078.30;;;13.32;57.07
27304;BME280;14791;52.392;13.092;2023-04-01T17:22:55;100103.55;;;13.24;56.84
27304;BME280;14791;52.392;13.092;2023-04-01T17:28:48;100108.55;;;13.12;56.87
27304;BME280;14791;52.392;13.092;2023-04-01T17:37:10;100124.22;;;12.95;56.89
27304;BME280;14791;52.392;13.092;2023-04-01T17:42:42;100138.97;;;12.84;56.81
27304;BME280;14791;52.392;13.092;2023-04-01T17:45:33;100149.20;;;12.79;57.01
27304;BME280;14791;52.392;13.092;2023-04-01T17:57:00;100163.34;;;12.70;57.33
27304;BME280;14791;52.392;13.092;2023-04-01T18:16:43;100210.31;;;12.51;56.57
27304;BME280;14791;52.392;13.092;2023-04-01T18:21:58;100221.00;;;12.40;56.48
27304;BME280;14791;52.392;13.092;2023-04-01T18:24:33;100224.31;;;12.38;56.42
27304;BME280;14791;52.392;13.092;2023-04-01T18:35:17;100240.73;;;12.39;56.28
27304;BME280;14791;52.392;13.092;2023-04-01T18:38:11;100249.38;;;12.37;56.36
27304;BME280;14791;52.392;13.092;2023-04-01T18:40:54;100254.73;;;12.37;56.38
27304;BME280;14791;52.392;13.092;2023-04-01T18:43:33;100254.73;;;12.37;56.38
27304;BME280;14791;52.392;13.092;2023-04-01T18:46:48;100267.77;;;12.42;56.37
27304;BME280;14791;52.392;13.092;2023-04-01T18:51:39;100274.22;;;12.39;56.06
27304;BME280;14791;52.392;13.092;2023-04-01T18:54:11;100277.14;;;12.36;55.77
27304;BME280;14791;52.392;13.092;2023-04-01T18:56:43;100290.03;;;12.31;55.80
27304;BME280;14791;52.392;13.092;2023-04-01T18:59:32;100294.75;;;12.27;55.68
27304;BME280;14791;52.392;13.092;2023-04-01T19:02:24;100299.85;;;12.25;55.61
27304;BME280;14791;52.392;13.092;2023-04-01T19:05:02;100304.34;;;12.19;55.72
27304;BME280;14791;52.392;13.092;2023-04-01T19:07:47;100306.13;;;12.12;55.80
27304;BME280;14791;52.392;13.092;2023-04-01T19:10:23;100310.59;;;12.06;55.62
27304;BME280;14791;52.392;13.092;2023-04-01T19:15:49;100317.17;;;12.02;55.90
27304;BME280;14791;52.392;13.092;2023-04-01T19:21:21;100320.19;;;11.98;55.67
27304;BME280;14791;52.392;13.092;2023-04-01T19:37:51;100337.45;;;11.81;56.12
27304;BME280;14791;52.392;13.092;2023-04-01T19:40:32;100350.44;;;11.80;56.03
27304;BME280;14791;52.392;13.092;2023-04-01T19:45:41;100354.66;;;11.71;56.00
27304;BME280;14791;52.392;13.092;2023-04-01T19:51:13;100371.40;;;11.67;56.21
27304;BME280;14791;52.392;13.092;2023-04-01T19:53:59;100376.00;;;11.65;56.12
27304;BME280;14791;52.392;13.092;2023-04-01T19:57:00;100375.25;;;11.63;56.10
27304;BME280;14791;52.392;13.092;2023-04-01T20:04:50;100396.45;;;11.54;55.96
27304;BME280;14791;52.392;13.092;2023-04-01T20:07:30;100398.50;;;11.50;55.79
27304;BME280;14791;52.392;13.092;2023-04-01T20:10:10;100418.30;;;11.47;55.67
27304;BME280;14791;52.392;13.092;2023-04-01T20:15:37;100421.56;;;11.45;55.83
27304;BME280;14791;52.392;13.092;2023-04-01T20:24:04;100428.98;;;11.35;55.71
27304;BME280;14791;52.392;13.092;2023-04-01T20:26:39;100433.34;;;11.30;55.69
27304;BME280;14791;52.392;13.092;2023-04-01T20:29:27;100446.80;;;11.28;55.74
27304;BME280;14791;52.392;13.092;2023-04-01T20:32:25;100451.17;;;11.29;55.73
27304;BME280;14791;52.392;13.092;2023-04-01T20:35:12;100459.78;;;11.27;55.84
27304;BME280;14791;52.392;13.092;2023-04-01T20:37:50;100463.25;;;11.22;55.89
27304;BME280;14791;52.392;13.092;2023-04-01T20:43:23;100466.68;;;11.24;56.11
27304;BME280;14791;52.392;13.092;2023-04-01T20:46:08;100473.64;;;11.27;56.05
27304;BME280;14791;52.392;13.092;2023-04-01T20:51:31;100480.45;;;11.25;56.05
27304;BME280;14791;52.392;13.092;2023-04-01T21:11:25;100507.66;;;11.05;55.78
27304;BME280;14791;52.392;13.092;2023-04-01T21:16:47;100516.73;;;11.02;55.75
27304;BME280;14791;52.392;13.092;2023-04-01T21:25:17;100532.11;;;10.99;55.75
27304;BME280;14791;52.392;13.092;2023-04-01T21:53:05;100580.28;;;10.77;55.91
27304;BME280;14791;52.392;13.092;2023-04-01T22:07:23;100597.59;;;10.64;55.90
27304;BME280;14791;52.392;13.092;2023-04-01T22:10:15;100605.89;;;10.60;55.69
27304;BME280;14791;52.392;13.092;2023-04-01T22:12:49;100609.41;;;10.60;55.70
27304;BME280;14791;52.392;13.092;2023-04-01T22:15:20;100612.86;;;10.55;55.67
27304;BME280;14791;52.392;13.092;2023-04-01T22:18:06;100611.25;;;10.53;55.71